createdAt,value
2016-09-19T00:00:40.383Z,12.9
2016-09-19T00:01:40.704Z,12.91
2016-09-19T00:02:40.423Z,12.87
2016-09-19T00:03:40.782Z,12.93
2016-09-19T00:04:40.791Z,12.91
2016-09-19T00:05:40.792Z,12.83
2016-09-19T00:06:40.817Z,12.83
2016-09-19T00:07:40.533Z,12.76
2016-09-19T00:08:40.254Z,12.73
2016-09-19T00:09:40.886Z,12.72
2016-09-19T00:10:40.900Z,12.62
2016-09-19T00:11:40.915Z,12.57
2016-09-19T00:12:40.638Z,12.62
2016-09-19T00:13:40.980Z,12.51
2016-09-19T00:14:40.986Z,12.45
2016-09-19T00:15:40.700Z,12.45
2016-09-19T00:16:40.704Z,12.33
2016-09-19T00:17:41.055Z,12.37
2016-09-19T00:18:41.064Z,12.35
2016-09-19T00:19:41.083Z,12.29
2016-09-19T00:20:41.107Z,12.32
2016-09-19T00:21:41.117Z,12.26
2016-09-19T00:22:41.153Z,12.2
2016-09-19T00:23:41.245Z,12.12
2016-09-19T00:24:40.873Z,12.08
2016-09-19T00:25:41.207Z,12
2016-09-19T00:26:41.253Z,11.96
2016-09-19T00:27:40.945Z,11.96
2016-09-19T00:28:41.263Z,11.95
2016-09-19T00:29:40.965Z,12.02
2016-09-19T00:30:41.298Z,11.86
2016-09-19T00:31:41.015Z,11.95
2016-09-19T00:32:41.351Z,11.86
2016-09-19T00:33:41.371Z,11.89
2016-09-19T00:34:41.503Z,11.86
2016-09-19T00:35:41.409Z,11.89
2016-09-19T00:36:41.533Z,11.83
2016-09-19T00:37:41.445Z,11.85
2016-09-19T00:38:41.563Z,11.77
2016-09-19T00:39:41.176Z,11.74
2016-09-19T00:40:41.600Z,11.71
2016-09-19T00:41:41.553Z,11.65
2016-09-19T00:42:41.237Z,11.63
2016-09-19T00:43:41.377Z,11.55
2016-09-19T00:44:41.597Z,11.56
2016-09-19T00:45:41.606Z,11.48
2016-09-19T00:46:41.626Z,11.43
2016-09-19T00:47:41.647Z,11.44
2016-09-19T00:48:41.409Z,11.38
2016-09-19T00:49:41.375Z,11.41
2016-09-19T00:50:41.757Z,11.44
2016-09-19T00:51:41.418Z,11.48
2016-09-19T00:52:41.731Z,11.45
2016-09-19T00:53:41.847Z,11.49
2016-09-19T00:54:41.784Z,11.51
2016-09-19T00:55:41.808Z,11.41
2016-09-19T00:56:41.810Z,11.34
2016-09-19T00:57:41.852Z,11.34
2016-09-19T00:58:41.855Z,11.37
2016-09-19T00:59:41.888Z,11.33
2016-09-19T01:00:41.903Z,11.26
2016-09-19T01:01:41.615Z,11.19
2016-09-19T01:02:41.986Z,11.22
2016-09-19T01:03:41.714Z,11.04
2016-09-19T01:04:42.026Z,11.1
2016-09-19T01:05:41.684Z,11.01
2016-09-19T01:06:42.024Z,11.08
2016-09-19T01:07:42.048Z,11.08
2016-09-19T01:08:42.059Z,11.1
2016-09-19T01:09:42.090Z,11.05
2016-09-19T01:10:42.095Z,11.13
2016-09-19T01:11:42.114Z,11.07
2016-09-19T01:12:41.827Z,11.07
2016-09-19T01:13:41.836Z,11
2016-09-19T01:14:42.177Z,10.84
2016-09-19T01:15:41.888Z,10.86
2016-09-19T01:16:42.307Z,10.69
2016-09-19T01:17:42.248Z,10.72
2016-09-19T01:18:42.245Z,10.75
2016-09-19T01:19:41.959Z,10.72
2016-09-19T01:20:42.289Z,10.72
2016-09-19T01:21:42.307Z,10.75
2016-09-19T01:22:41.704Z,10.72
2016-09-19T01:23:42.037Z,10.64
2016-09-19T01:24:42.368Z,10.67
2016-09-19T01:25:42.393Z,10.61
2016-09-19T01:26:42.407Z,10.53
2016-09-19T01:27:42.539Z,10.53
2016-09-19T01:28:42.449Z,10.39
2016-09-19T01:29:42.498Z,10.43
2016-09-19T01:30:42.175Z,10.39
2016-09-19T01:31:42.518Z,10.34
2016-09-19T01:32:42.218Z,10.31
2016-09-19T01:33:42.219Z,10.3
2016-09-19T01:34:42.540Z,10.28
2016-09-19T01:35:42.577Z,10.33
2016-09-19T01:36:42.600Z,10.24
2016-09-19T01:37:42.625Z,10.18
2016-09-19T01:38:42.651Z,10.33
2016-09-19T01:39:42.646Z,10.28
2016-09-19T01:40:42.366Z,10.39
2016-09-19T01:41:42.698Z,10.28
2016-09-19T01:42:42.702Z,10.36
2016-09-19T01:43:42.746Z,10.34
2016-09-19T01:44:42.749Z,10.33
2016-09-19T01:45:42.458Z,10.18
2016-09-19T01:46:42.476Z,10.13
2016-09-19T01:47:42.806Z,10.06
2016-09-19T01:48:42.511Z,10
2016-09-19T01:49:42.840Z,9.94
2016-09-19T01:50:42.868Z,9.9
2016-09-19T01:51:42.560Z,9.87
2016-09-19T01:52:42.905Z,9.76
2016-09-19T01:53:42.921Z,9.8
2016-09-19T01:54:42.943Z,9.59
2016-09-19T01:55:42.646Z,9.58
2016-09-19T01:56:42.987Z,9.51
2016-09-19T01:57:43.012Z,9.4
2016-09-19T01:58:43.018Z,9.37
2016-09-19T01:59:43.034Z,9.27
2016-09-19T02:00:42.739Z,9.27
2016-09-19T02:01:42.448Z,9.18
2016-09-19T02:02:43.082Z,9.11
2016-09-19T02:03:42.508Z,9.02
2016-09-19T02:04:43.136Z,9
2016-09-19T02:05:42.836Z,8.96
2016-09-19T02:06:43.266Z,8.92
2016-09-19T02:07:42.877Z,8.78
2016-09-19T02:08:42.904Z,8.81
2016-09-19T02:09:43.227Z,8.78
2016-09-19T02:10:42.936Z,8.75
2016-09-19T02:11:42.945Z,8.78
2016-09-19T02:12:42.978Z,8.74
2016-09-19T02:13:43.314Z,8.68
2016-09-19T02:14:43.318Z,8.68
2016-09-19T02:15:43.336Z,8.63
2016-09-19T02:16:43.037Z,8.61
2016-09-19T02:17:43.379Z,8.59
2016-09-19T02:18:43.139Z,8.54
2016-09-19T02:19:43.110Z,8.54
2016-09-19T02:20:43.465Z,8.53
2016-09-19T02:21:43.133Z,8.57
2016-09-19T02:22:43.145Z,8.44
2016-09-19T02:23:43.478Z,8.49
2016-09-19T02:24:43.234Z,8.49
2016-09-19T02:25:43.201Z,8.52
2016-09-19T02:26:42.970Z,8.54
2016-09-19T02:27:43.563Z,8.57
2016-09-19T02:28:43.575Z,8.57
2016-09-19T02:29:43.587Z,8.57
2016-09-19T02:30:43.305Z,8.57
2016-09-19T02:31:43.667Z,8.39
2016-09-19T02:32:43.338Z,8.44
2016-09-19T02:33:43.776Z,8.28
2016-09-19T02:34:43.387Z,8.32
2016-09-19T02:35:43.709Z,8.42
2016-09-19T02:36:43.716Z,8.41
2016-09-19T02:37:43.757Z,8.42
2016-09-19T02:38:43.448Z,8.42
2016-09-19T02:39:43.776Z,8.32
2016-09-19T02:40:43.604Z,8.31
2016-09-19T02:41:43.807Z,8.31
2016-09-19T02:42:43.227Z,8.16
2016-09-19T02:43:43.866Z,8.21
2016-09-19T02:44:43.885Z,8.18
2016-09-19T02:45:43.892Z,8.14
2016-09-19T02:46:44.002Z,8.09
2016-09-19T02:47:43.654Z,8.02
2016-09-19T02:48:43.941Z,8.05
2016-09-19T02:49:43.962Z,8.01
2016-09-19T02:50:43.986Z,8.01
2016-09-19T02:51:43.994Z,8.01
2016-09-19T02:52:44.026Z,8.03
2016-09-19T02:53:44.023Z,7.99
2016-09-19T02:54:44.066Z,7.98
2016-09-19T02:55:44.115Z,8.06
2016-09-19T02:56:44.098Z,8.09
2016-09-19T02:57:44.158Z,7.95
2016-09-19T02:58:44.230Z,7.99
2016-09-19T02:59:44.186Z,8.03
2016-09-19T03:00:43.866Z,7.96
2016-09-19T03:01:44.179Z,7.93
2016-09-19T03:02:44.195Z,7.91
2016-09-19T03:03:44.233Z,7.93
2016-09-19T03:04:44.239Z,7.93
2016-09-19T03:05:44.028Z,7.9
2016-09-19T03:06:43.958Z,7.93
2016-09-19T03:07:44.286Z,7.88
2016-09-19T03:08:44.317Z,7.88
2016-09-19T03:09:44.645Z,7.95
2016-09-19T03:10:44.025Z,7.93
2016-09-19T03:11:44.372Z,7.84
2016-09-19T03:12:44.376Z,7.81
2016-09-19T03:13:44.386Z,7.8
2016-09-19T03:14:44.105Z,7.84
2016-09-19T03:15:43.815Z,7.85
2016-09-19T03:16:44.153Z,7.83
2016-09-19T03:17:44.465Z,7.88
2016-09-19T03:18:44.169Z,7.91
2016-09-19T03:19:44.507Z,7.85
2016-09-19T03:20:44.537Z,7.9
2016-09-19T03:21:44.546Z,7.77
2016-09-19T03:22:44.565Z,7.93
2016-09-19T03:23:44.577Z,7.84
2016-09-19T03:24:44.286Z,7.88
2016-09-19T03:25:44.607Z,7.74
2016-09-19T03:26:44.367Z,7.72
2016-09-19T03:27:44.628Z,7.78
2016-09-19T03:28:44.667Z,7.78
2016-09-19T03:29:44.683Z,7.77
2016-09-19T03:30:44.697Z,7.77
2016-09-19T03:31:44.716Z,7.59
2016-09-19T03:32:44.729Z,7.67
2016-09-19T03:33:44.756Z,7.64
2016-09-19T03:34:44.464Z,7.64
2016-09-19T03:35:44.483Z,7.66
2016-09-19T03:36:44.808Z,7.5
2016-09-19T03:37:44.511Z,7.5
2016-09-19T03:38:44.829Z,7.55
2016-09-19T03:39:44.865Z,7.56
2016-09-19T03:40:44.870Z,7.55
2016-09-19T03:41:44.914Z,7.51
2016-09-19T03:42:44.935Z,7.47
2016-09-19T03:43:44.928Z,7.39
2016-09-19T03:44:44.947Z,7.37
2016-09-19T03:45:44.966Z,7.37
2016-09-19T03:46:44.993Z,7.37
2016-09-19T03:47:45.005Z,7.32
2016-09-19T03:48:45.026Z,7.41
2016-09-19T03:49:45.035Z,7.22
2016-09-19T03:50:45.112Z,7.29
2016-09-19T03:51:45.087Z,7.25
2016-09-19T03:52:44.775Z,7.28
2016-09-19T03:53:44.806Z,7.19
2016-09-19T03:54:45.139Z,7.23
2016-09-19T03:55:45.157Z,7.19
2016-09-19T03:56:44.843Z,7.18
2016-09-19T03:57:45.178Z,7.04
2016-09-19T03:58:45.194Z,7.07
2016-09-19T03:59:45.221Z,7.04
2016-09-19T04:00:44.937Z,7.01
2016-09-19T04:01:45.257Z,7.05
2016-09-19T04:02:45.365Z,7.01
2016-09-19T04:03:45.274Z,7.04
2016-09-19T04:04:45.048Z,7.01
2016-09-19T04:05:45.318Z,7.13
2016-09-19T04:06:45.088Z,7.05
2016-09-19T04:07:45.042Z,7.21
2016-09-19T04:08:45.067Z,7.04
2016-09-19T04:09:45.388Z,7.18
2016-09-19T04:10:45.417Z,7.1
2016-09-19T04:11:45.421Z,7.22
2016-09-19T04:12:45.433Z,7.22
2016-09-19T04:13:45.456Z,7.19
2016-09-19T04:14:45.471Z,7.19
2016-09-19T04:15:45.257Z,7.23
2016-09-19T04:16:45.216Z,7.19
2016-09-19T04:17:45.527Z,7.23
2016-09-19T04:18:45.233Z,7.23
2016-09-19T04:19:45.572Z,7.28
2016-09-19T04:20:45.580Z,7.23
2016-09-19T04:21:45.276Z,7.28
2016-09-19T04:22:45.614Z,7.22
2016-09-19T04:23:45.638Z,7.26
2016-09-19T04:24:45.646Z,7.29
2016-09-19T04:25:45.675Z,7.23
2016-09-19T04:26:45.422Z,7.23
2016-09-19T04:27:45.696Z,7.23
2016-09-19T04:28:45.825Z,7.22
2016-09-19T04:29:45.844Z,7.25
2016-09-19T04:30:45.833Z,7.28
2016-09-19T04:31:45.565Z,7.26
2016-09-19T04:32:45.843Z,7.25
2016-09-19T04:33:45.807Z,7.23
2016-09-19T04:34:45.844Z,7.23
2016-09-19T04:35:45.837Z,7.26
2016-09-19T04:36:45.855Z,7.28
2016-09-19T04:37:45.658Z,7.26
2016-09-19T04:38:45.897Z,7.28
2016-09-19T04:39:45.907Z,7.25
2016-09-19T04:40:45.928Z,7.22
2016-09-19T04:41:45.936Z,7.25
2016-09-19T04:42:46.011Z,7.31
2016-09-19T04:43:46.084Z,7.25
2016-09-19T04:44:46.067Z,7.22
2016-09-19T04:45:46.005Z,7.15
2016-09-19T04:46:45.726Z,7.08
2016-09-19T04:47:46.147Z,7.08
2016-09-19T04:48:45.754Z,7.08
2016-09-19T04:49:45.783Z,7.01
2016-09-19T04:50:46.093Z,7.04
2016-09-19T04:51:46.105Z,7.03
2016-09-19T04:52:45.816Z,7.05
2016-09-19T04:53:46.162Z,7.03
2016-09-19T04:54:46.197Z,7.01
2016-09-19T04:55:45.926Z,7.03
2016-09-19T04:56:45.907Z,6.96
2016-09-19T04:57:46.226Z,6.9
2016-09-19T04:58:45.948Z,6.93
2016-09-19T04:59:46.364Z,6.96
2016-09-19T05:00:46.274Z,6.8
2016-09-19T05:01:46.297Z,6.85
2016-09-19T05:02:46.317Z,6.83
2016-09-19T05:03:46.331Z,6.8
2016-09-19T05:04:46.337Z,6.77
2016-09-19T05:05:46.367Z,6.83
2016-09-19T05:06:46.391Z,6.77
2016-09-19T05:07:46.397Z,6.72
2016-09-19T05:08:46.427Z,6.72
2016-09-19T05:09:46.126Z,6.75
2016-09-19T05:10:46.149Z,6.7
2016-09-19T05:11:46.156Z,6.68
2016-09-19T05:12:46.506Z,6.78
2016-09-19T05:13:46.485Z,6.71
2016-09-19T05:14:46.527Z,6.8
2016-09-19T05:15:46.551Z,6.77
2016-09-19T05:16:46.559Z,6.67
2016-09-19T05:17:46.558Z,6.8
2016-09-19T05:18:46.576Z,6.68
2016-09-19T05:19:46.298Z,6.77
2016-09-19T05:20:46.634Z,6.75
2016-09-19T05:21:46.637Z,6.74
2016-09-19T05:22:46.359Z,6.77
2016-09-19T05:23:46.674Z,6.82
2016-09-19T05:24:46.375Z,6.82
2016-09-19T05:25:46.726Z,6.8
2016-09-19T05:26:46.717Z,6.85
2016-09-19T05:27:46.736Z,6.82
2016-09-19T05:28:46.752Z,6.89
2016-09-19T05:29:46.467Z,6.89
2016-09-19T05:30:46.795Z,6.86
2016-09-19T05:31:46.807Z,6.89
2016-09-19T05:32:46.826Z,6.93
2016-09-19T05:33:46.858Z,6.92
2016-09-19T05:34:46.858Z,7
2016-09-19T05:35:46.877Z,7.03
2016-09-19T05:36:46.894Z,6.96
2016-09-19T05:37:46.604Z,7.04
2016-09-19T05:38:46.932Z,7.04
2016-09-19T05:39:46.952Z,7.05
2016-09-19T05:40:47.066Z,7.08
2016-09-19T05:41:46.656Z,7.07
2016-09-19T05:42:46.697Z,7.01
2016-09-19T05:43:46.717Z,7.07
2016-09-19T05:44:47.040Z,7.03
2016-09-19T05:45:47.048Z,7.05
2016-09-19T05:46:46.757Z,7.03
2016-09-19T05:47:47.088Z,7.05
2016-09-19T05:48:47.107Z,7.13
2016-09-19T05:49:47.134Z,7.15
2016-09-19T05:50:47.125Z,7.15
2016-09-19T05:51:47.204Z,7.23
2016-09-19T05:52:47.169Z,7.26
2016-09-19T05:53:47.192Z,7.26
2016-09-19T05:54:47.213Z,7.41
2016-09-19T05:55:47.226Z,7.5
2016-09-19T05:56:47.234Z,7.83
2016-09-19T05:57:47.258Z,8.49
2016-09-19T05:58:47.303Z,9.48
2016-09-19T05:59:47.306Z,10.46
2016-09-19T06:00:47.306Z,11.23
2016-09-19T06:01:47.330Z,11.99
2016-09-19T06:02:47.335Z,12.73
2016-09-19T06:03:47.079Z,13.39
2016-09-19T06:04:47.079Z,14.01
2016-09-19T06:05:47.498Z,14.56
2016-09-19T06:06:47.435Z,15.19
2016-09-19T06:07:47.436Z,15.62
2016-09-19T06:08:47.159Z,16.16
2016-09-19T06:09:47.485Z,16.72
2016-09-19T06:10:47.496Z,17.16
2016-09-19T06:11:47.525Z,17.46
2016-09-19T06:12:47.230Z,17.84
2016-09-19T06:13:47.579Z,18.11
2016-09-19T06:14:47.592Z,18.45
2016-09-19T06:15:47.665Z,18.78
2016-09-19T06:16:47.411Z,18.98
2016-09-19T06:17:47.634Z,19.29
2016-09-19T06:18:47.727Z,19.56
2016-09-19T06:19:47.808Z,19.71
2016-09-19T06:20:47.407Z,20
2016-09-19T06:21:47.410Z,20.17
2016-09-19T06:22:47.813Z,20.5
2016-09-19T06:23:47.527Z,20.74
2016-09-19T06:24:47.482Z,20.89
2016-09-19T06:25:47.812Z,21.22
2016-09-19T06:26:49.305Z,21.51
2016-09-19T06:27:47.884Z,21.88
2016-09-19T06:28:48.337Z,22.14
2016-09-19T06:29:48.551Z,22.22
2016-09-19T06:30:47.940Z,22.43
2016-09-19T06:31:48.220Z,22.62
2016-09-19T06:32:47.975Z,22.78
2016-09-19T06:33:48.026Z,22.99
2016-09-19T06:34:48.023Z,23.13
2016-09-19T06:35:48.046Z,22.15
2016-09-19T06:36:48.078Z,22.01
2016-09-19T06:37:48.236Z,22.49
2016-09-19T06:38:47.813Z,22.84
2016-09-19T06:39:47.836Z,23.28
2016-09-19T06:40:48.186Z,23.52
2016-09-19T06:41:48.308Z,23.85
2016-09-19T06:42:47.916Z,24.04
2016-09-19T06:43:47.978Z,24.38
2016-09-19T06:44:48.264Z,24.38
2016-09-19T06:45:48.297Z,24.63
2016-09-19T06:46:48.324Z,24.77
2016-09-19T06:47:48.356Z,24.78
2016-09-19T06:48:48.377Z,24.85
2016-09-19T06:49:48.397Z,25.01
2016-09-19T06:50:47.809Z,25.39
2016-09-19T06:51:48.462Z,25.7
2016-09-19T06:52:48.497Z,25.92
2016-09-19T06:53:48.206Z,25.88
2016-09-19T06:54:48.537Z,25.34
2016-09-19T06:55:48.561Z,25.52
2016-09-19T06:56:48.277Z,25.56
2016-09-19T06:57:48.295Z,25.4
2016-09-19T06:58:48.657Z,25.09
2016-09-19T06:59:48.679Z,24.32
2016-09-19T07:00:48.693Z,23.86
2016-09-19T07:01:48.420Z,23.76
2016-09-19T07:02:48.108Z,23.77
2016-09-19T07:03:48.767Z,23.77
2016-09-19T07:04:48.485Z,23.45
2016-09-19T07:05:48.828Z,23.11
2016-09-19T07:06:48.857Z,22.51
2016-09-19T07:07:48.874Z,22.07
2016-09-19T07:08:48.596Z,22.01
2016-09-19T07:09:48.924Z,22.31
2016-09-19T07:10:48.643Z,22.62
2016-09-19T07:11:48.661Z,22.65
2016-09-19T07:12:48.704Z,22.73
2016-09-19T07:13:48.735Z,22.47
2016-09-19T07:14:49.465Z,22.33
2016-09-19T07:15:49.274Z,22.36
2016-09-19T07:16:48.805Z,22.8
2016-09-19T07:17:48.835Z,22.65
2016-09-19T07:18:48.881Z,22.33
2016-09-19T07:19:49.543Z,22.1
2016-09-19T07:20:49.338Z,22.04
2016-09-19T07:21:48.938Z,21.65
2016-09-19T07:22:49.365Z,21.25
2016-09-19T07:23:48.983Z,20.85
2016-09-19T07:24:49.018Z,20.75
2016-09-19T07:25:49.033Z,20.9
2016-09-19T07:26:49.456Z,20.58
2016-09-19T07:27:50.004Z,20.49
2016-09-19T07:28:49.415Z,20.4
2016-09-19T07:29:49.646Z,20.1
2016-09-19T07:30:49.494Z,19.41
2016-09-19T07:31:49.605Z,18.19
2016-09-19T07:32:49.425Z,17.41
2016-09-19T07:33:49.699Z,17.09
2016-09-19T07:34:49.423Z,16.8
2016-09-19T07:35:49.625Z,16.32
2016-09-19T07:36:49.622Z,16.03
2016-09-19T07:37:49.493Z,15.76
2016-09-19T07:38:49.692Z,15.81
2016-09-19T07:39:49.467Z,15.51
2016-09-19T07:40:49.739Z,15.5
2016-09-19T07:41:49.434Z,15.45
2016-09-19T07:42:49.604Z,15.43
2016-09-19T07:43:49.915Z,15.37
2016-09-19T07:44:49.643Z,15.37
2016-09-19T07:45:49.547Z,15.27
2016-09-19T07:46:49.632Z,15.33
2016-09-19T07:47:49.913Z,15.29
2016-09-19T07:48:49.923Z,15.18
2016-09-19T07:49:49.944Z,15.15
2016-09-19T07:50:50.179Z,14.97
2016-09-19T07:51:49.673Z,14.93
2016-09-19T07:52:50.005Z,14.94
2016-09-19T07:53:50.029Z,14.92
2016-09-19T07:54:50.076Z,14.92
2016-09-19T07:55:50.211Z,14.81
2016-09-19T07:56:50.163Z,14.81
2016-09-19T07:57:49.832Z,14.87
2016-09-19T07:58:50.173Z,14.81
2016-09-19T07:59:50.166Z,14.79
2016-09-19T08:00:50.211Z,14.81
2016-09-19T08:01:49.961Z,14.94
2016-09-19T08:02:49.934Z,15.04
2016-09-19T08:03:50.261Z,15.22
2016-09-19T08:04:49.973Z,15.23
2016-09-19T08:05:50.320Z,15.27
2016-09-19T08:06:50.353Z,15.47
2016-09-19T08:07:50.360Z,15.51
2016-09-19T08:08:50.364Z,15.75
2016-09-19T08:09:50.433Z,16
2016-09-19T08:10:50.413Z,16.16
2016-09-19T08:11:50.490Z,16.13
2016-09-19T08:12:50.156Z,16.08
2016-09-19T08:13:50.486Z,15.94
2016-09-19T08:14:50.502Z,15.84
2016-09-19T08:15:49.924Z,15.99
2016-09-19T08:16:50.552Z,16.16
2016-09-19T08:17:50.273Z,16.32
2016-09-19T08:18:50.604Z,16.41
2016-09-19T08:19:50.621Z,16.47
2016-09-19T08:20:50.344Z,16.46
2016-09-19T08:21:50.681Z,16.62
2016-09-19T08:22:50.171Z,16.8
2016-09-19T08:23:50.411Z,16.87
2016-09-19T08:24:50.444Z,16.91
2016-09-19T08:25:50.449Z,16.84
2016-09-19T08:26:50.782Z,16.97
2016-09-19T08:27:50.791Z,16.94
2016-09-19T08:28:50.510Z,16.89
2016-09-19T08:29:50.229Z,16.77
2016-09-19T08:30:50.871Z,16.91
2016-09-19T08:31:50.890Z,16.91
2016-09-19T08:32:50.298Z,16.97
2016-09-19T08:33:50.955Z,16.8
2016-09-19T08:34:50.970Z,16.8
2016-09-19T08:35:51.009Z,16.84
2016-09-19T08:36:50.714Z,16.95
2016-09-19T08:37:50.743Z,16.86
2016-09-19T08:38:50.736Z,16.68
2016-09-19T08:39:51.079Z,16.72
2016-09-19T08:40:50.795Z,16.58
2016-09-19T08:41:51.135Z,16.57
2016-09-19T08:42:50.844Z,16.8
2016-09-19T08:43:51.172Z,16.92
2016-09-19T08:44:51.190Z,16.91
2016-09-19T08:45:51.223Z,16.84
2016-09-19T08:46:50.934Z,16.91
2016-09-19T08:47:51.295Z,16.94
2016-09-19T08:48:51.300Z,17.14
2016-09-19T08:49:50.996Z,17.05
2016-09-19T08:50:51.040Z,16.91
2016-09-19T08:51:51.354Z,16.84
2016-09-19T08:52:51.395Z,16.86
2016-09-19T08:53:51.412Z,17.1
2016-09-19T08:54:51.475Z,17.3
2016-09-19T08:55:51.512Z,17.42
2016-09-19T08:56:51.483Z,17.41
2016-09-19T08:57:51.198Z,17.31
2016-09-19T08:58:51.205Z,17.38
2016-09-19T08:59:51.240Z,17.3
2016-09-19T09:00:51.577Z,17.3
2016-09-19T09:01:51.607Z,17.32
2016-09-19T09:02:51.621Z,17.46
2016-09-19T09:03:51.341Z,17.54
2016-09-19T09:04:51.744Z,17.54
2016-09-19T09:05:51.700Z,17.56
2016-09-19T09:06:51.400Z,17.73
2016-09-19T09:07:51.761Z,17.78
2016-09-19T09:08:51.783Z,17.56
2016-09-19T09:09:51.797Z,17.56
2016-09-19T09:10:51.865Z,17.76
2016-09-19T09:11:51.833Z,17.75
2016-09-19T09:12:51.561Z,17.59
2016-09-19T09:13:51.896Z,17.76
2016-09-19T09:14:51.753Z,17.84
2016-09-19T09:15:52.040Z,17.97
2016-09-19T09:16:51.971Z,17.93
2016-09-19T09:17:51.750Z,18.02
2016-09-19T09:18:51.690Z,18.15
2016-09-19T09:19:52.084Z,18.12
2016-09-19T09:20:52.074Z,18.3
2016-09-19T09:21:52.105Z,18.37
2016-09-19T09:22:52.115Z,18.49
2016-09-19T09:23:51.815Z,18.67
2016-09-19T09:24:52.163Z,18.86
2016-09-19T09:25:52.467Z,18.88
2016-09-19T09:26:51.956Z,18.79
2016-09-19T09:27:52.238Z,18.67
2016-09-19T09:28:52.516Z,18.45
2016-09-19T09:29:52.607Z,18.16
2016-09-19T09:30:52.497Z,18.09
2016-09-19T09:31:52.012Z,17.98
2016-09-19T09:32:52.522Z,17.8
2016-09-19T09:33:52.582Z,17.65
2016-09-19T09:34:52.515Z,17.71
2016-09-19T09:35:52.140Z,17.69
2016-09-19T09:36:52.182Z,17.87
2016-09-19T09:37:52.162Z,18.03
2016-09-19T09:38:52.554Z,18.09
2016-09-19T09:39:52.259Z,18.24
2016-09-19T09:40:52.233Z,18.39
2016-09-19T09:41:52.623Z,18.26
2016-09-19T09:42:51.976Z,18.24
2016-09-19T09:43:52.624Z,18.19
2016-09-19T09:44:52.325Z,18.06
2016-09-19T09:45:52.665Z,18.18
2016-09-19T09:46:52.696Z,18.28
2016-09-19T09:47:52.716Z,18.27
2016-09-19T09:48:52.777Z,18.41
2016-09-19T09:49:52.618Z,18.58
2016-09-19T09:50:52.801Z,18.63
2016-09-19T09:51:52.813Z,18.81
2016-09-19T09:52:52.843Z,18.73
2016-09-19T09:53:52.872Z,18.81
2016-09-19T09:54:52.883Z,18.76
2016-09-19T09:55:52.907Z,18.86
2016-09-19T09:56:52.932Z,19.11
2016-09-19T09:57:52.659Z,19.32
2016-09-19T09:58:52.726Z,19.35
2016-09-19T09:59:52.393Z,19.34
2016-09-19T10:00:53.038Z,19.42
2016-09-19T10:01:53.150Z,19.35
2016-09-19T10:02:53.082Z,19.32
2016-09-19T10:03:53.123Z,19.37
2016-09-19T10:04:53.355Z,19.34
2016-09-19T10:05:53.171Z,19.11
2016-09-19T10:06:53.183Z,19.26
2016-09-19T10:07:53.226Z,19.2
2016-09-19T10:08:53.249Z,19.34
2016-09-19T10:09:52.955Z,19.22
2016-09-19T10:10:52.984Z,19.15
2016-09-19T10:11:53.011Z,19.11
2016-09-19T10:12:53.406Z,19.3
2016-09-19T10:13:53.415Z,19.56
2016-09-19T10:14:53.482Z,19.57
2016-09-19T10:15:53.417Z,19.59
2016-09-19T10:16:53.446Z,19.48
2016-09-19T10:17:53.187Z,19.53
2016-09-19T10:18:53.189Z,19.41
2016-09-19T10:19:53.537Z,19.29
2016-09-19T10:20:53.546Z,19.29
2016-09-19T10:21:53.585Z,19.12
2016-09-19T10:22:53.725Z,19.17
2016-09-19T10:23:53.618Z,19.16
2016-09-19T10:24:53.796Z,19.22
2016-09-19T10:25:53.356Z,19.42
2016-09-19T10:26:53.767Z,19.67
2016-09-19T10:27:53.772Z,19.66
2016-09-19T10:28:53.549Z,19.7
2016-09-19T10:29:53.794Z,19.62
2016-09-19T10:30:53.805Z,19.62
2016-09-19T10:31:53.575Z,19.66
2016-09-19T10:32:53.846Z,19.63
2016-09-19T10:33:53.581Z,19.24
2016-09-19T10:34:54.004Z,19.22
2016-09-19T10:35:54.073Z,19.15
2016-09-19T10:36:54.005Z,18.96
2016-09-19T10:37:53.966Z,18.94
2016-09-19T10:38:54.006Z,19.11
2016-09-19T10:39:54.020Z,19.17
2016-09-19T10:40:53.745Z,19.2
2016-09-19T10:41:54.078Z,19.35
2016-09-19T10:42:54.093Z,19.49
2016-09-19T10:43:53.817Z,19.6
2016-09-19T10:44:54.227Z,19.6
2016-09-19T10:45:54.196Z,19.66
2016-09-19T10:46:54.232Z,19.7
2016-09-19T10:47:54.249Z,19.74
2016-09-19T10:48:53.956Z,19.67
2016-09-19T10:49:54.298Z,19.63
2016-09-19T10:50:54.004Z,19.62
2016-09-19T10:51:54.337Z,19.85
2016-09-19T10:52:54.361Z,20
2016-09-19T10:53:54.075Z,20.08
2016-09-19T10:54:54.096Z,20.19
2016-09-19T10:55:54.436Z,20.08
2016-09-19T10:56:54.483Z,19.99
2016-09-19T10:57:54.199Z,20.14
2016-09-19T10:58:54.312Z,19.94
2016-09-19T10:59:54.227Z,19.97
2016-09-19T11:00:54.571Z,20.08
2016-09-19T11:01:54.608Z,20.11
2016-09-19T11:02:54.302Z,20.19
2016-09-19T11:03:54.647Z,20.46
2016-09-19T11:04:54.662Z,20.56
2016-09-19T11:05:54.391Z,20.9
2016-09-19T11:06:54.974Z,20.96
2016-09-19T11:07:54.755Z,20.86
2016-09-19T11:08:54.471Z,21.01
2016-09-19T11:09:54.484Z,21.08
2016-09-19T11:10:54.823Z,21.04
2016-09-19T11:11:54.544Z,20.98
2016-09-19T11:12:54.875Z,20.88
2016-09-19T11:13:54.585Z,20.9
2016-09-19T11:14:54.627Z,21.2
2016-09-19T11:15:54.337Z,21.32
2016-09-19T11:16:54.997Z,21.15
2016-09-19T11:17:55.016Z,20.83
2016-09-19T11:18:55.036Z,20.74
2016-09-19T11:19:55.084Z,20.6
2016-09-19T11:20:55.150Z,20.53
2016-09-19T11:21:54.805Z,20.75
2016-09-19T11:22:54.819Z,20.88
2016-09-19T11:23:54.856Z,20.95
2016-09-19T11:24:55.214Z,21.04
2016-09-19T11:25:55.240Z,21.2
2016-09-19T11:26:55.266Z,21.25
2016-09-19T11:27:55.561Z,21.26
2016-09-19T11:28:55.569Z,21.17
2016-09-19T11:29:55.213Z,21.04
2016-09-19T11:30:55.551Z,20.98
2016-09-19T11:31:55.543Z,20.95
2016-09-19T11:32:55.240Z,21
2016-09-19T11:33:55.746Z,21.07
2016-09-19T11:34:55.591Z,21.04
2016-09-19T11:35:55.334Z,21.11
2016-09-19T11:36:55.250Z,20.93
2016-09-19T11:37:55.615Z,20.95
2016-09-19T11:38:55.580Z,20.98
2016-09-19T11:39:55.298Z,20.92
2016-09-19T11:40:55.624Z,21.05
2016-09-19T11:41:55.713Z,21.19
2016-09-19T11:42:55.368Z,21.07
2016-09-19T11:43:55.692Z,20.89
2016-09-19T11:44:55.724Z,20.82
2016-09-19T11:45:55.769Z,21.05
2016-09-19T11:46:55.568Z,21.15
2016-09-19T11:47:55.825Z,21.25
2016-09-19T11:48:55.870Z,20.96
2016-09-19T11:49:55.972Z,20.83
2016-09-19T11:50:55.957Z,20.92
2016-09-19T11:51:55.999Z,21.1
2016-09-19T11:52:55.991Z,21.07
2016-09-19T11:53:55.973Z,21
2016-09-19T11:54:55.685Z,20.89
2016-09-19T11:55:55.708Z,21.07
2016-09-19T11:56:56.080Z,21.15
2016-09-19T11:57:55.457Z,21.04
2016-09-19T11:58:56.112Z,21.22
2016-09-19T11:59:55.832Z,21.14
2016-09-19T12:00:56.153Z,21.08
2016-09-19T12:01:56.201Z,21.13
2016-09-19T12:02:55.927Z,21.17
2016-09-19T12:03:55.943Z,21.25
2016-09-19T12:04:55.954Z,21.45
2016-09-19T12:05:55.994Z,21.45
2016-09-19T12:06:56.329Z,21.44
2016-09-19T12:07:56.347Z,21.63
2016-09-19T12:08:56.378Z,21.66
2016-09-19T12:09:56.402Z,21.68
2016-09-19T12:10:56.419Z,21.63
2016-09-19T12:11:56.144Z,21.7
2016-09-19T12:12:56.175Z,21.75
2016-09-19T12:13:56.511Z,21.83
2016-09-19T12:14:56.224Z,21.89
2016-09-19T12:15:56.553Z,21.85
2016-09-19T12:16:56.586Z,21.74
2016-09-19T12:17:56.607Z,21.63
2016-09-19T12:18:56.634Z,21.51
2016-09-19T12:19:56.354Z,21.45
2016-09-19T12:20:56.697Z,21.45
2016-09-19T12:21:56.712Z,21.59
2016-09-19T12:22:56.843Z,21.47
2016-09-19T12:23:56.784Z,21.38
2016-09-19T12:24:56.793Z,21.35
2016-09-19T12:25:56.504Z,21.05
2016-09-19T12:26:56.848Z,20.88
2016-09-19T12:27:56.877Z,20.89
2016-09-19T12:28:56.904Z,20.83
2016-09-19T12:29:56.644Z,20.93
2016-09-19T12:30:56.961Z,20.96
2016-09-19T12:31:57.058Z,20.9
2016-09-19T12:32:56.692Z,20.85
2016-09-19T12:33:57.034Z,21.05
2016-09-19T12:34:57.063Z,21.11
2016-09-19T12:35:57.091Z,21.26
2016-09-19T12:36:57.122Z,21.2
2016-09-19T12:37:56.906Z,21.11
2016-09-19T12:38:57.172Z,21.05
2016-09-19T12:39:57.206Z,21.08
2016-09-19T12:40:56.913Z,21.05
2016-09-19T12:41:57.264Z,20.95
2016-09-19T12:42:57.273Z,20.93
2016-09-19T12:43:56.984Z,21.07
2016-09-19T12:44:57.026Z,21.05
2016-09-19T12:45:57.386Z,21.17
2016-09-19T12:46:57.375Z,21.33
2016-09-19T12:47:57.404Z,21.56
2016-09-19T12:48:57.112Z,21.8
2016-09-19T12:49:57.456Z,21.83
2016-09-19T12:50:57.273Z,21.81
2016-09-19T12:51:57.519Z,21.85
2016-09-19T12:52:57.555Z,21.84
2016-09-19T12:53:57.586Z,21.92
2016-09-19T12:54:57.301Z,21.91
2016-09-19T12:55:57.613Z,21.78
2016-09-19T12:56:57.733Z,21.91
2016-09-19T12:57:57.674Z,21.88
2016-09-19T12:58:57.689Z,21.96
2016-09-19T12:59:57.725Z,21.88
2016-09-19T13:00:57.770Z,21.78
2016-09-19T13:01:57.796Z,21.63
2016-09-19T13:02:57.503Z,21.47
2016-09-19T13:03:57.895Z,21.56